createdAt,value
2023-12-10T00:04:37.291Z,100.0
2023-12-10T00:10:09.572Z,100.0
2023-12-10T00:15:40.514Z,100.0
2023-12-10T00:21:12.174Z,100.0
2023-12-10T00:26:43.812Z,100.0
2023-12-10T00:32:15.665Z,100.0
2023-12-10T00:37:47.381Z,100.0
2023-12-10T00:43:19.510Z,100.0
2023-12-10T00:48:55.397Z,100.0
2023-12-10T00:54:26.922Z,100.0
2023-12-10T00:59:58.601Z,100.0
2023-12-10T01:05:30.441Z,100.0
2023-12-10T01:11:02.442Z,100.0
2023-12-10T01:16:33.688Z,100.0
2023-12-10T01:22:05.960Z,100.0
2023-12-10T01:27:37.275Z,100.0
2023-12-10T01:33:09.458Z,100.0
2023-12-10T01:38:40.682Z,100.0
2023-12-10T01:44:12.487Z,100.0
2023-12-10T01:49:48.514Z,100.0
2023-12-10T01:55:20.245Z,100.0
2023-12-10T02:00:52.197Z,100.0
2023-12-10T02:07:21.704Z,100.0
2023-12-10T02:11:55.465Z,100.0
2023-12-10T02:17:27.132Z,100.0
2023-12-10T02:22:58.792Z,100.0
2023-12-10T02:28:30.512Z,100.0
2023-12-10T02:34:02.342Z,100.0
2023-12-10T02:39:34.226Z,100.0
2023-12-10T02:45:05.730Z,100.0
2023-12-10T02:50:41.843Z,100.0
2023-12-10T02:56:13.869Z,100.0
2023-12-10T03:01:45.422Z,100.0
2023-12-10T03:07:17.097Z,100.0
2023-12-10T03:12:48.883Z,100.0
2023-12-10T03:18:20.755Z,100.0
2023-12-10T03:23:52.187Z,100.0
2023-12-10T03:29:23.935Z,100.0
2023-12-10T03:34:55.663Z,100.0
2023-12-10T03:40:27.263Z,100.0
2023-12-10T03:45:59.164Z,100.0
2023-12-10T03:51:35.766Z,100.0
2023-12-10T03:57:06.896Z,100.0
2023-12-10T04:02:38.591Z,100.0
2023-12-10T04:08:10.467Z,100.0
2023-12-10T04:13:42.148Z,100.0
2023-12-10T04:19:15.145Z,100.0
2023-12-10T04:24:45.578Z,100.0
2023-12-10T04:30:17.346Z,100.0
2023-12-10T04:35:50.355Z,100.0
2023-12-10T04:41:20.752Z,100.0
2023-12-10T04:46:52.491Z,100.0
2023-12-10T04:52:29.078Z,100.0
2023-12-10T04:58:00.263Z,100.0
2023-12-10T05:03:32.270Z,100.0
2023-12-10T05:09:03.828Z,100.0
2023-12-10T05:14:35.735Z,100.0
2023-12-10T05:20:07.169Z,100.0
2023-12-10T05:25:38.952Z,100.0
2023-12-10T05:31:10.769Z,100.0
2023-12-10T05:36:42.463Z,100.0
2023-12-10T05:42:14.182Z,100.0
2023-12-10T05:47:45.994Z,100.0
2023-12-10T05:53:21.930Z,100.0
2023-12-10T05:58:53.660Z,100.0
2023-12-10T06:04:25.866Z,100.0
2023-12-10T06:09:57.440Z,100.0
2023-12-10T06:15:28.896Z,100.0
2023-12-10T06:21:00.620Z,97.92
2023-12-10T06:26:32.294Z,98.42
2023-12-10T06:32:04.302Z,97.07
2023-12-10T06:37:35.725Z,98.16
2023-12-10T06:43:07.577Z,98.47
2023-12-10T06:48:39.451Z,97.44
2023-12-10T06:54:15.667Z,99.86
2023-12-10T06:59:47.072Z,100.0
2023-12-10T07:05:18.809Z,98.95
2023-12-10T07:10:50.445Z,100.0
2023-12-10T07:16:22.122Z,100.0
2023-12-10T07:21:54.269Z,100.0
2023-12-10T07:27:25.563Z,100.0
2023-12-10T07:32:57.426Z,100.0
2023-12-10T07:38:29.367Z,100.0
2023-12-10T07:44:00.738Z,100.0
2023-12-10T07:49:32.683Z,100.0
2023-12-10T07:55:08.539Z,100.0
2023-12-10T08:00:40.596Z,100.0
2023-12-10T08:06:12.189Z,100.0
2023-12-10T08:11:43.825Z,100.0
2023-12-10T08:17:16.209Z,100.0
2023-12-10T08:22:47.215Z,100.0
2023-12-10T08:28:19.052Z,98.82
2023-12-10T08:33:51.034Z,98.99
2023-12-10T08:39:22.404Z,98.57
2023-12-10T08:44:54.147Z,98.74
2023-12-10T08:50:25.834Z,98.42
2023-12-10T08:56:03.973Z,99.23
2023-12-10T09:01:35.928Z,98.45
2023-12-10T09:07:07.369Z,98.31
2023-12-10T09:12:39.140Z,100.0
2023-12-10T09:18:11.034Z,100.0
2023-12-10T09:23:42.535Z,100.0
2023-12-10T09:29:14.734Z,100.0
2023-12-10T09:34:46.504Z,100.0
2023-12-10T09:40:21.839Z,100.0
2023-12-10T09:45:50.316Z,100.0
2023-12-10T09:51:21.270Z,100.0
2023-12-10T09:56:59.320Z,100.0
2023-12-10T10:02:31.642Z,100.0
2023-12-10T10:08:02.803Z,100.0
2023-12-10T10:13:34.522Z,100.0
2023-12-10T10:19:06.432Z,100.0
2023-12-10T10:24:37.909Z,100.0
2023-12-10T10:30:09.778Z,100.0
2023-12-10T10:35:41.371Z,100.0
2023-12-10T10:41:13.292Z,100.0
2023-12-10T10:46:44.861Z,100.0
2023-12-10T10:52:16.512Z,100.0
2023-12-10T10:57:52.849Z,100.0
2023-12-10T11:03:24.700Z,100.0
2023-12-10T11:08:56.296Z,100.0
2023-12-10T11:14:27.921Z,100.0
2023-12-10T11:20:00.540Z,100.0
2023-12-10T11:25:31.482Z,100.0
2023-12-10T11:31:03.172Z,100.0
2023-12-10T11:36:38.723Z,100.0
2023-12-10T11:42:07.358Z,100.0
2023-12-10T11:47:38.306Z,100.0
2023-12-10T11:53:10.069Z,100.0
2023-12-10T11:58:46.264Z,100.0
2023-12-10T12:04:18.379Z,100.0
2023-12-10T12:09:49.782Z,100.0
2023-12-10T12:15:21.466Z,100.0
2023-12-10T12:20:53.027Z,100.0
2023-12-10T12:26:24.712Z,100.0
2023-12-10T12:32:25.392Z,100.0
2023-12-10T12:37:28.689Z,100.0
2023-12-10T12:43:00.335Z,100.0
2023-12-10T12:48:32.008Z,100.0
2023-12-10T12:54:14.026Z,100.0
2023-12-10T12:59:39.633Z,100.0
2023-12-10T13:05:11.477Z,100.0
2023-12-10T13:10:42.993Z,100.0
2023-12-10T13:16:15.178Z,100.0
2023-12-10T13:21:46.673Z,100.0
2023-12-10T13:27:20.703Z,100.0
2023-12-10T13:32:50.303Z,100.0
2023-12-10T13:38:21.603Z,100.0
2023-12-10T13:43:53.405Z,100.0
2023-12-10T13:49:25.338Z,100.0
2023-12-10T13:54:56.992Z,100.0
2023-12-10T14:00:33.271Z,100.0
2023-12-10T14:06:05.141Z,100.0
2023-12-10T14:11:44.396Z,100.0
2023-12-10T14:17:08.320Z,100.0
2023-12-10T14:22:40.257Z,100.0
2023-12-10T14:28:11.977Z,100.0
2023-12-10T14:33:44.060Z,100.0
2023-12-10T14:39:15.305Z,100.0
2023-12-10T14:44:47.030Z,100.0
2023-12-10T14:50:18.777Z,100.0
2023-12-10T14:55:50.448Z,100.0
2023-12-10T15:01:26.421Z,100.0
2023-12-10T15:06:58.277Z,100.0
2023-12-10T15:12:30.898Z,100.0
2023-12-10T15:18:02.039Z,100.0
2023-12-10T15:23:33.430Z,100.0
2023-12-10T15:29:05.360Z,100.0
2023-12-10T15:34:37.313Z,100.0
2023-12-10T15:40:09.522Z,100.0
2023-12-10T15:45:40.560Z,100.0
2023-12-10T15:51:12.162Z,100.0
2023-12-10T15:56:44.021Z,100.0
2023-12-10T16:02:19.994Z,100.0
2023-12-10T16:07:53.248Z,100.0
2023-12-10T16:13:24.730Z,100.0
2023-12-10T16:18:55.869Z,100.0
2023-12-10T16:24:27.272Z,100.0
2023-12-10T16:29:58.799Z,100.0
2023-12-10T16:35:31.016Z,100.0
2023-12-10T16:41:02.190Z,100.0
2023-12-10T16:46:33.886Z,100.0
2023-12-10T16:52:05.705Z,100.0
2023-12-10T16:57:37.578Z,100.0
2023-12-10T17:03:13.497Z,100.0
2023-12-10T17:08:45.301Z,100.0
2023-12-10T17:14:17.094Z,100.0
2023-12-10T17:19:49.171Z,99.83
2023-12-10T17:25:20.577Z,99.61
2023-12-10T17:30:52.325Z,97.81
2023-12-10T17:36:24.305Z,97.56
2023-12-10T17:41:55.686Z,95.81
2023-12-10T17:47:27.836Z,94.84
2023-12-10T17:52:59.291Z,94.46
2023-12-10T17:58:30.960Z,94.0
2023-12-10T18:04:07.226Z,93.44
2023-12-10T18:09:38.870Z,91.21
2023-12-10T18:15:10.550Z,90.27
2023-12-10T18:20:42.136Z,89.04
2023-12-10T18:26:13.979Z,88.35
2023-12-10T18:31:45.980Z,87.79
2023-12-10T18:37:17.453Z,86.35
2023-12-10T18:42:49.392Z,85.91
2023-12-10T18:48:20.939Z,83.58
2023-12-10T18:53:52.578Z,83.11
2023-12-10T18:59:24.332Z,83.19
2023-12-10T19:05:03.144Z,82.89
2023-12-10T19:10:34.195Z,82.55
2023-12-10T19:16:06.086Z,81.53
2023-12-10T19:21:37.725Z,78.9
2023-12-10T19:27:09.497Z,80.47
2023-12-10T19:32:41.219Z,78.68
2023-12-10T19:38:12.852Z,77.15
2023-12-10T19:43:44.538Z,77.27
2023-12-10T19:49:17.327Z,78.04
2023-12-10T19:54:48.376Z,78.79
2023-12-10T20:00:19.808Z,78.27
2023-12-10T20:05:55.878Z,78.56
2023-12-10T20:11:27.554Z,77.75
2023-12-10T20:16:59.414Z,77.41
2023-12-10T20:22:31.117Z,76.62
2023-12-10T20:28:03.221Z,77.52
2023-12-10T20:33:34.829Z,75.98
2023-12-10T20:39:06.222Z,77.61
2023-12-10T20:44:38.000Z,76.1
2023-12-10T20:50:09.593Z,76.71
2023-12-10T20:55:41.405Z,76.81
2023-12-10T21:01:13.229Z,76.6
2023-12-10T21:06:53.847Z,77.22
2023-12-10T21:12:20.945Z,82.92
2023-12-10T21:17:53.287Z,84.84
2023-12-10T21:23:24.725Z,86.74
2023-12-10T21:28:56.816Z,85.77
2023-12-10T21:34:28.178Z,85.17
2023-12-10T21:40:00.763Z,86.52
2023-12-10T21:45:31.424Z,88.14
2023-12-10T21:51:03.203Z,90.01
2023-12-10T21:56:34.764Z,90.64
2023-12-10T22:02:07.337Z,93.77
2023-12-10T22:07:42.841Z,100.0
2023-12-10T22:13:14.779Z,100.0
2023-12-10T22:18:46.506Z,100.0
2023-12-10T22:24:17.966Z,100.0
2023-12-10T22:29:49.700Z,100.0
2023-12-10T22:35:21.391Z,100.0
2023-12-10T22:40:53.183Z,100.0
2023-12-10T22:46:24.935Z,100.0
2023-12-10T22:51:57.508Z,100.0
2023-12-10T22:57:29.041Z,100.0
2023-12-10T23:03:00.056Z,100.0
2023-12-10T23:08:36.680Z,100.0
2023-12-10T23:14:07.828Z,100.0
2023-12-10T23:19:39.814Z,100.0
2023-12-10T23:25:11.520Z,100.0
2023-12-10T23:30:46.228Z,100.0
2023-12-10T23:36:14.724Z,100.0
2023-12-10T23:41:46.424Z,100.0
2023-12-10T23:47:18.274Z,100.0
2023-12-10T23:52:49.923Z,100.0
2023-12-10T23:58:21.926Z,100.0
